José Martí International Airport
MUHA : rendu visible

Aérodrome :











RETROUVEZ-NOUS SUR...

 
LOGIN :

S'inscrire | Disclaimer

   EN    FR    IT 

 









Légende :    VFR   VFR Marginal   IFR   IFR Intensif   IFR Très Intensif
Visi : 
Plafond : 
>= 8 km
>= 3000ft
5 à 8 km
1000 à 3000 ft
1500m à 5 km
500 à 1000 ft
800 à 1500m
200 à 500 ft
< 800m
< 200 ft
Symboles :   Orages  Brouillard  Fortes neiges  Fortes précipitations  Vent > 20 kt






- Altitude de l'aérodrome : 210 ft
- Code IATA : HAV


MUHA - José Martí International

DERNIER METAR :
  • 121955Z 25010KT 9000 FEW018CB BKN043 28/24 Q1015 RMK CB AT I/IV QUAD AD

METARs EXPIRÉS :
  • 121906Z 27008KT 9000 FEW018CB BKN043 25/19 Q1015 RMK CB AT I/IV QUAD AD
  • 121855Z 23015KT 5000 2000SW SHRA FEW018CB BKN033 25/21 Q1016
  • 121832Z 23013KT 5000 VCSH FEW018CB BKN033 27/24 Q1016 RMK CB AT III/IV QUAD AD
  • 121755Z 23003KT 150V310 9999 BKN025 31/24 Q1016

TAF MUHA
Valide du 12 à 18h jusqu'au 13 à 18h UTC


121700Z 1218/1318 26004KT 9000 BKN025
PROB30
TEMPO 1218/1223 VRB10KT 5000 SHRA FEW018CB BKN030
BECMG 1301/1303 VRB03KT FEW025
FIR MUFH / Amérique du Nord



MET'MAP, la Météo Aéronautique d'un coup d'oeil ! - Copyright ORBIFLY Décembre 2007 - Disclaimer

ORBIFLY MET'MAP TEAM :

Programmation & Développement : Alexandra Zaïnal
Sur une idée originale de : Baudouin d'Aumeries
Assistance à la programmation : Marc-Olivier Méhu
Soutien technique & logistique : Manuel Goepfert

Contact : metmap@orbifly.com




SOURCES & CREDITS :

   NOAA       Earth
Advisory